Red Bluff, CA (96080)

12:44 AM PDT on September 03, 2014 (GMT -0700)
Red Bluff Municipal | Change Station
CLOSE
Current Station
Airport
Location: Red Bluff,
Elevation: 351 ft
Nearby Weather Stations

Elev 351 ft 40.15 °N, 122.25 °W | Updated 50 minutes ago

Clear
Clear
77 °F
Feels Like 77 °F
N
8
Wind Variable Wind from SSW

Today
High -- | Low -- °F
--% Chance of Precip.
Yesterday
High -- | Low -- °F
Precip. -- in
6:38 AM 7:37 PM
First Quarter, 60% visible
Pressure 29.71 in
Visibility 10.0 miles
Clouds Clear
Dew Point 51 °F
Humidity 40%
Rainfall 0.00 in
Snow Depth Not available.
UV 0 out of 12
Pollen 8.70 out of 12
Air Quality Not available.
Flu Activity Not available.
METAR KRBL 030654Z AUTO 20007KT 10SM CLR 25/11 A2972 RMK AO2 SLP059 T02500106

More Conditions Fewer Conditions

Pressure 29.71 in
Visibility 10.0 miles
Clouds Clear
Dew Point 51 °F
Humidity 40%
Rainfall 0.00 in
Snow Depth Not available.
UV 0 out of 12
Pollen 8.70 out of 12
Air Quality Not available.
Flu Activity Not available.
METAR KRBL 030654Z AUTO 20007KT 10SM CLR 25/11 A2972 RMK AO2 SLP059 T02500106

More Conditions Fewer Conditions

10-Day Weather Forecast

Almanac

Astronomy

Sep. 03, 2014 Rise Set
Actual Time 6:38 AM PDT 7:37 PM PDT
Civil Twilight 6:10 AM PDT 8:04 PM PDT
Nautical Twilight 5:37 AM PDT 8:37 PM PDT
Astronomical Twilight 5:03 AM PDT 9:12 PM PDT
Moon 3:24 PM PDT 12:37 AM PDT
Length of Visible Light 13h 54m
Length of Day
12h 58m
Tomorrow will be 2m 33s shorter.
First Quarter, 60% of the Moon is Illuminated
Today
First Quarter
Sep 8
Full
Sep 15
Last Quarter
Sep 24
New
Oct 1
First Quarter

Today's Extremes

State Highs State Lows

Community

WunderPhotos

Upload Photos

1,749,899 photos uploaded!

Nearby

Snow Depth

Station Depth Elevation
Adin Mountain 1 in 6200 ft
CSS Lab 3 in 6900 ft
Tahoe City Cross 0 in 6750 ft
Rubicon #2 0 in 7500 ft
Cedar Pass 1 in 7100 ft

Earthquake Activity

City Distance Mag. Time & Date
Cobb, California 98 miles 2.5 12:00 PM PDT
2014-09-02
Yountville, California 125 miles 2.6 1:15 PM PDT
2014-09-01
Green Valley, California 133 miles 2.5 6:37 AM PDT
2014-08-31
Napa, California 134 miles 3.2 1:56 AM PDT
2014-08-31
Minimum magnitude displayed is 2.5.

Coastal Water Temperatures

Place Temperature
No Stations Reporting

Nearby Weather Stations